Time;durP1;ratioP1;P1;durP2;ratioP2;P2;SDS_P1;SDS_P2;PMS_P1;PMS_P2;Temp;Humidity;BMP_temperature;BMP_pressure;BME280_temperature;BME280_humidity;BME280_pressure;Samples;Min_cycle;Max_cycle;Signal;HPM_P1;HPM_P2
2022/12/12 00:00:03;;;;;;;32.90;9.73;;;0.80;99.90;;;;;;5101013;27;20472;-86
2022/12/12 00:02:29;;;;;;;34.53;9.68;;;0.70;99.90;;;;;;5135915;27;20063;-86
2022/12/12 00:04:56;;;;;;;31.08;9.63;;;0.80;99.90;;;;;;5140638;27;20111;-85
2022/12/12 00:07:22;;;;;;;32.40;10.05;;;0.70;99.90;;;;;;5118227;27;20062;-77
2022/12/12 00:09:48;;;;;;;35.13;10.38;;;0.70;99.90;;;;;;5137042;27;20035;-84
2022/12/12 00:12:14;;;;;;;31.50;10.35;;;0.70;99.90;;;;;;5137690;27;20051;-81
2022/12/12 00:14:39;;;;;;;33.38;11.25;;;0.70;99.90;;;;;;5111215;27;20047;-85
2022/12/12 00:17:05;;;;;;;32.35;9.25;;;0.80;99.90;;;;;;5102071;27;20069;-85
2022/12/12 00:19:31;;;;;;;32.22;9.70;;;0.80;99.90;;;;;;5118696;27;20047;-86
2022/12/12 00:21:56;;;;;;;35.70;9.90;;;0.70;99.90;;;;;;5136088;27;20047;-86
2022/12/12 00:24:22;;;;;;;28.17;9.23;;;0.70;99.90;;;;;;5116958;27;20130;-86
2022/12/12 00:26:48;;;;;;;35.75;10.43;;;0.70;99.90;;;;;;5100629;27;20047;-86
2022/12/12 00:29:14;;;;;;;33.58;9.50;;;0.70;99.90;;;;;;5136164;27;20041;-86
2022/12/12 00:31:39;;;;;;;33.08;10.15;;;0.70;99.90;;;;;;5136803;27;20130;-85
2022/12/12 00:34:05;;;;;;;33.00;9.82;;;0.70;99.90;;;;;;5118569;27;20054;-83
2022/12/12 00:36:31;;;;;;;32.13;9.75;;;0.80;99.90;;;;;;5118763;27;20043;-86
2022/12/12 00:38:58;;;;;;;31.95;10.32;;;0.70;99.90;;;;;;5135451;27;20414;-86
2022/12/12 00:41:24;;;;;;;29.85;9.45;;;0.80;99.90;;;;;;5118071;27;20043;-84
2022/12/12 00:43:50;;;;;;;28.58;9.50;;;0.80;99.90;;;;;;5139563;27;20103;-84
2022/12/12 00:46:19;;;;;;;33.38;10.27;;;0.80;99.90;;;;;;5141139;27;20047;-85
2022/12/12 00:48:45;;;;;;;31.90;8.98;;;0.70;99.90;;;;;;5147504;27;20043;-85
2022/12/12 00:51:18;;;;;;;40.90;10.45;;;0.70;99.90;;;;;;5115009;27;20201;-84
2022/12/12 00:53:44;;;;;;;31.98;10.10;;;0.70;99.90;;;;;;5143691;27;20059;-84
2022/12/12 00:56:10;;;;;;;34.35;10.52;;;0.80;99.90;;;;;;5110155;27;20104;-85
2022/12/12 00:58:36;;;;;;;32.35;10.27;;;0.70;99.90;;;;;;5126132;27;20047;-86
2022/12/12 01:01:09;;;;;;;31.77;9.43;;;0.70;99.90;;;;;;5128019;28;20072;-86
2022/12/12 01:03:36;;;;;;;30.10;9.35;;;0.70;99.90;;;;;;5112481;28;20047;-84
2022/12/12 01:06:03;;;;;;;30.35;9.25;;;0.70;99.90;;;;;;5125877;28;20051;-84
2022/12/12 01:08:28;;;;;;;32.35;8.98;;;0.70;99.90;;;;;;5141039;28;20080;-84
2022/12/12 01:10:54;;;;;;;32.10;9.82;;;0.80;99.90;;;;;;5141469;28;20047;-86
2022/12/12 01:13:20;;;;;;;32.45;8.95;;;0.80;99.90;;;;;;5144673;28;20055;-86
2022/12/12 01:15:46;;;;;;;30.05;9.73;;;0.80;99.90;;;;;;5150303;28;20055;-82
2022/12/12 01:18:13;;;;;;;27.38;8.98;;;0.80;99.90;;;;;;5150522;28;20086;-85
2022/12/12 01:20:40;;;;;;;30.98;10.10;;;0.80;99.90;;;;;;5147945;28;20146;-85
2022/12/12 01:23:06;;;;;;;31.98;9.65;;;0.70;99.90;;;;;;5145756;28;20085;-84
2022/12/12 01:25:32;;;;;;;32.10;8.77;;;0.80;99.90;;;;;;5143912;28;20031;-85
2022/12/12 01:27:58;;;;;;;34.05;9.73;;;0.70;99.90;;;;;;5144550;28;20059;-87
2022/12/12 01:30:25;;;;;;;28.92;9.30;;;0.80;99.90;;;;;;5142848;28;20098;-87
2022/12/12 01:32:51;;;;;;;36.30;11.13;;;0.70;99.90;;;;;;5122756;28;20043;-83
2022/12/12 01:35:17;;;;;;;31.50;9.20;;;0.70;99.90;;;;;;5108977;28;20058;-85
2022/12/12 01:37:43;;;;;;;28.33;9.20;;;0.70;99.90;;;;;;5121872;28;20058;-86
2022/12/12 01:40:18;;;;;;;30.05;9.25;;;0.70;99.90;;;;;;5139854;28;20035;-86
2022/12/12 01:42:44;;;;;;;35.33;10.77;;;0.70;99.90;;;;;;5124639;28;20043;-85
2022/12/12 01:45:47;;;;;;;28.90;8.93;;;0.70;99.90;;;;;;5124660;28;20076;-85
2022/12/12 01:48:13;;;;;;;32.05;9.38;;;0.70;99.90;;;;;;5123038;28;20138;-85
2022/12/12 01:50:42;;;;;;;32.53;9.98;;;0.70;99.90;;;;;;5144509;27;20050;-86
2022/12/12 01:53:10;;;;;;;27.60;8.82;;;0.70;99.90;;;;;;5146031;27;20035;-86
2022/12/12 01:55:36;;;;;;;32.50;10.27;;;0.70;99.90;;;;;;5126070;27;20134;-85
2022/12/12 01:58:02;;;;;;;30.20;9.45;;;0.70;99.90;;;;;;5148341;27;20053;-83
2022/12/12 02:00:28;;;;;;;28.83;8.60;;;0.70;99.90;;;;;;5147769;27;20500;-85
2022/12/12 02:02:55;;;;;;;28.27;9.50;;;0.70;99.90;;;;;;5127628;27;20115;-86
2022/12/12 02:05:32;;;;;;;30.05;9.93;;;0.70;99.90;;;;;;5127487;27;20501;-86
2022/12/12 02:08:01;;;;;;;25.83;8.82;;;0.70;99.90;;;;;;5109613;27;20054;-86
2022/12/12 02:10:27;;;;;;;29.20;9.82;;;0.80;99.90;;;;;;5143967;27;20053;-83
2022/12/12 02:13:01;;;;;;;29.23;9.07;;;0.70;99.90;;;;;;5141834;27;20055;-85
2022/12/12 02:15:33;;;;;;;27.30;9.18;;;0.60;99.90;;;;;;5141013;27;20043;-85
2022/12/12 02:18:19;;;;;;;28.30;9.32;;;0.70;99.90;;;;;;5147448;27;20067;-85
2022/12/12 02:20:57;;;;;;;29.38;9.30;;;0.60;99.90;;;;;;5131142;27;20107;-84
2022/12/12 02:23:29;;;;;;;27.75;8.88;;;0.70;99.90;;;;;;5132135;27;20043;-85
2022/12/12 02:26:33;;;;;;;30.63;9.55;;;0.70;99.90;;;;;;5135700;27;20040;-86
2022/12/12 02:29:26;;;;;;;30.90;9.52;;;0.70;99.90;;;;;;5150540;27;20043;-87
2022/12/12 02:32:10;;;;;;;29.98;9.02;;;0.70;99.90;;;;;;5121792;27;20043;-86
2022/12/12 02:35:04;;;;;;;28.52;8.85;;;0.70;99.90;;;;;;5120895;27;20388;-87
2022/12/12 02:37:32;;;;;;;31.13;9.23;;;0.80;99.90;;;;;;5121061;27;20043;-86
2022/12/12 02:40:17;;;;;;;34.72;10.65;;;0.80;99.90;;;;;;5138600;27;20043;-85
2022/12/12 02:42:51;;;;;;;32.38;10.35;;;0.80;99.90;;;;;;5104196;27;20447;-85
2022/12/12 02:45:26;;;;;;;27.65;9.43;;;0.70;99.90;;;;;;5140606;27;20503;-86
2022/12/12 02:47:57;;;;;;;30.58;9.73;;;0.70;99.90;;;;;;5151016;27;20118;-86
2022/12/12 02:50:26;;;;;;;28.83;8.98;;;0.80;99.90;;;;;;5133310;27;20043;-84
2022/12/12 02:52:52;;;;;;;29.40;9.27;;;0.70;99.90;;;;;;5157380;27;20040;-82
2022/12/12 02:55:18;;;;;;;32.17;9.48;;;0.80;99.90;;;;;;5156071;27;20075;-83
2022/12/12 02:57:44;;;;;;;28.50;9.70;;;0.70;99.90;;;;;;5156869;27;20035;-82
2022/12/12 03:00:13;;;;;;;32.33;9.40;;;0.80;99.90;;;;;;5155547;27;20039;-83
2022/12/12 03:02:45;;;;;;;27.20;8.85;;;0.80;99.90;;;;;;5138169;27;20111;-86
2022/12/12 03:08:37;;;;;;;29.05;9.88;;;0.80;99.90;;;;;;5120163;27;20090;-86
2022/12/12 03:11:10;;;;;;;30.90;9.02;;;0.80;99.90;;;;;;5120408;27;20169;-86
2022/12/12 03:14:03;;;;;;;29.13;9.88;;;0.80;99.90;;;;;;5138191;27;20490;-84
2022/12/12 03:16:58;;;;;;;29.92;9.48;;;0.80;99.90;;;;;;5121490;27;20047;-87
2022/12/12 03:19:24;;;;;;;31.48;9.40;;;0.80;99.90;;;;;;5121893;27;20139;-86
2022/12/12 03:22:02;;;;;;;27.95;8.85;;;0.80;99.90;;;;;;5141085;27;20144;-85
2022/12/12 03:24:35;;;;;;;32.65;10.98;;;0.80;99.90;;;;;;5123509;27;20047;-86
2022/12/12 03:27:09;;;;;;;31.40;9.85;;;0.80;99.90;;;;;;5142642;27;20103;-87
2022/12/12 03:29:41;;;;;;;34.63;9.55;;;0.80;99.90;;;;;;5124217;27;20108;-85
2022/12/12 03:32:12;;;;;;;28.90;9.90;;;0.90;99.90;;;;;;5141390;27;20104;-86
2022/12/12 03:34:46;;;;;;;32.75;10.13;;;0.90;99.90;;;;;;5145209;27;20054;-88
2022/12/12 03:37:21;;;;;;;31.92;10.32;;;0.90;99.90;;;;;;5127844;27;20046;-87
2022/12/12 03:39:55;;;;;;;29.45;9.65;;;0.90;99.90;;;;;;5126911;27;20116;-85
2022/12/12 03:42:29;;;;;;;31.95;10.20;;;0.90;99.90;;;;;;5145727;27;20143;-81
2022/12/12 03:45:22;;;;;;;27.95;9.45;;;0.90;99.90;;;;;;5145243;27;20099;-79
2022/12/12 03:48:14;;;;;;;30.13;10.27;;;0.90;99.90;;;;;;5125138;27;20042;-85
2022/12/12 03:50:58;;;;;;;29.10;9.13;;;0.90;99.90;;;;;;5131521;27;20062;-85
2022/12/12 03:53:28;;;;;;;32.83;10.52;;;0.90;99.90;;;;;;5124019;27;20066;-87
2022/12/12 03:56:04;;;;;;;28.42;9.43;;;0.90;99.90;;;;;;5145753;27;20051;-86
2022/12/12 03:58:54;;;;;;;34.50;10.18;;;0.90;99.90;;;;;;5110633;27;20078;-86
2022/12/12 04:01:25;;;;;;;31.95;9.80;;;0.80;99.90;;;;;;5129117;27;20143;-86
2022/12/12 04:04:00;;;;;;;31.25;9.55;;;0.90;99.90;;;;;;5126098;27;20046;-85
2022/12/12 04:06:44;;;;;;;31.67;9.55;;;0.80;99.90;;;;;;5126355;27;20047;-86
2022/12/12 04:15:31;;;;;;;29.25;9.95;;;0.80;99.90;;;;;;5150440;27;20054;-86
2022/12/12 04:18:19;;;;;;;33.05;9.93;;;0.80;99.90;;;;;;5131459;27;20100;-83
2022/12/12 04:24:19;;;;;;;31.13;9.68;;;0.80;99.90;;;;;;5153786;27;20122;-84
2022/12/12 04:26:54;;;;;;;28.92;9.70;;;0.80;99.90;;;;;;5114140;27;20046;-82
2022/12/12 04:29:40;;;;;;;26.33;8.98;;;0.90;99.90;;;;;;5110730;27;20098;-84
2022/12/12 04:32:32;;;;;;;32.80;10.60;;;0.80;99.90;;;;;;5147536;27;20451;-87
2022/12/12 04:35:04;;;;;;;27.58;9.60;;;0.80;99.90;;;;;;5153964;27;20085;-83
2022/12/12 04:37:35;;;;;;;35.58;10.48;;;0.80;99.90;;;;;;5135581;27;20154;-85
2022/12/12 04:40:04;;;;;;;30.27;10.10;;;0.80;99.90;;;;;;5099712;27;20039;-79
2022/12/12 04:42:35;;;;;;;28.60;9.32;;;0.80;99.90;;;;;;5131443;27;20468;-85
2022/12/12 04:45:14;;;;;;;28.42;9.23;;;0.80;99.90;;;;;;5116788;27;20054;-79
2022/12/12 04:47:44;;;;;;;29.67;9.93;;;0.80;99.90;;;;;;5135276;27;20108;-86
2022/12/12 04:50:12;;;;;;;26.80;9.18;;;0.80;99.90;;;;;;5130308;27;20130;-87
2022/12/12 04:52:40;;;;;;;33.28;9.90;;;0.80;99.90;;;;;;5131633;27;20053;-87
2022/12/12 04:55:16;;;;;;;30.08;10.05;;;0.80;99.90;;;;;;5144350;27;20047;-85
2022/12/12 04:57:47;;;;;;;32.13;10.00;;;0.80;99.90;;;;;;5124270;27;20043;-86
2022/12/12 05:00:13;;;;;;;30.42;9.35;;;0.80;99.90;;;;;;5102522;27;20058;-85
2022/12/12 05:03:10;;;;;;;34.60;9.73;;;0.80;99.90;;;;;;5137521;27;20499;-85
2022/12/12 05:05:47;;;;;;;30.58;10.00;;;0.80;99.90;;;;;;5102593;28;20059;-88
2022/12/12 05:08:35;;;;;;;27.52;8.75;;;0.80;99.90;;;;;;5118554;28;20463;-88
2022/12/12 05:11:03;;;;;;;33.95;10.25;;;0.80;99.90;;;;;;5102882;28;20050;-86
2022/12/12 05:13:33;;;;;;;28.20;9.02;;;0.80;99.90;;;;;;5136800;27;20093;-87
2022/12/12 05:16:02;;;;;;;30.08;9.48;;;0.80;99.90;;;;;;5118477;28;20063;-86
2022/12/12 05:18:29;;;;;;;31.63;10.73;;;0.80;99.90;;;;;;5101059;28;20047;-86
2022/12/12 05:20:55;;;;;;;30.42;10.05;;;0.80;99.90;;;;;;5117595;28;20066;-86
2022/12/12 05:23:21;;;;;;;28.08;9.20;;;0.80;99.90;;;;;;5135051;27;20042;-85
2022/12/12 05:25:46;;;;;;;30.65;9.43;;;0.80;99.90;;;;;;5139906;27;20054;-86
2022/12/12 05:28:12;;;;;;;33.28;9.98;;;0.80;99.90;;;;;;5122011;27;20047;-85
2022/12/12 05:30:38;;;;;;;29.88;9.95;;;0.80;99.90;;;;;;5140449;27;20047;-84
2022/12/12 05:33:03;;;;;;;29.75;9.52;;;0.80;99.90;;;;;;5120717;27;20035;-86
2022/12/12 05:35:29;;;;;;;28.25;9.15;;;0.70;99.90;;;;;;5139445;27;20494;-85
2022/12/12 05:37:55;;;;;;;28.52;10.18;;;0.70;99.90;;;;;;5120493;27;20083;-83
2022/12/12 05:40:21;;;;;;;30.58;9.93;;;0.80;99.90;;;;;;5139822;27;20047;-85
2022/12/12 05:42:47;;;;;;;30.52;10.07;;;0.80;99.90;;;;;;5141480;27;20050;-84
2022/12/12 05:45:13;;;;;;;29.88;9.80;;;0.70;99.90;;;;;;5129267;27;20072;-86
2022/12/12 05:47:39;;;;;;;32.97;10.50;;;0.80;99.90;;;;;;5152665;27;20083;-84
2022/12/12 05:50:06;;;;;;;28.27;9.30;;;0.80;99.90;;;;;;5136324;27;20051;-85
2022/12/12 05:52:32;;;;;;;27.73;9.13;;;0.80;99.90;;;;;;5115875;27;20061;-83
2022/12/12 05:54:57;;;;;;;30.35;10.05;;;0.70;99.90;;;;;;5142238;27;20051;-87
2022/12/12 05:57:23;;;;;;;29.30;9.43;;;0.70;99.90;;;;;;5107246;27;20055;-84
2022/12/12 05:59:49;;;;;;;30.00;9.85;;;0.70;99.90;;;;;;5123498;27;20062;-82
2022/12/12 06:02:16;;;;;;;26.75;8.85;;;0.70;99.90;;;;;;5089313;27;20086;-85
2022/12/12 06:04:44;;;;;;;28.02;8.90;;;0.70;99.90;;;;;;5143091;27;20057;-84
2022/12/12 06:07:10;;;;;;;29.52;9.50;;;0.70;99.90;;;;;;5106715;27;20122;-84
2022/12/12 06:09:36;;;;;;;26.25;8.68;;;0.70;99.90;;;;;;5143123;27;20050;-81
2022/12/12 06:12:02;;;;;;;28.65;9.30;;;0.70;99.90;;;;;;5131845;27;20047;-85
2022/12/12 06:14:28;;;;;;;31.95;9.85;;;0.70;99.90;;;;;;5105489;28;20104;-84
2022/12/12 06:16:54;;;;;;;29.10;9.55;;;0.60;99.90;;;;;;5107571;28;20047;-82
2022/12/12 06:19:20;;;;;;;30.35;10.02;;;0.70;99.90;;;;;;5127261;28;20424;-84
2022/12/12 06:21:46;;;;;;;31.88;10.00;;;0.70;99.90;;;;;;5131002;28;20082;-81
2022/12/12 06:24:12;;;;;;;32.92;10.25;;;0.70;99.90;;;;;;5128635;28;20040;-84
2022/12/12 06:26:38;;;;;;;38.85;11.80;;;0.70;99.90;;;;;;5127222;28;20051;-84
2022/12/12 06:29:04;;;;;;;45.05;14.88;;;0.60;99.90;;;;;;5108146;28;20143;-84
2022/12/12 06:31:31;;;;;;;70.45;23.88;;;0.60;99.90;;;;;;5122335;28;20086;-84
2022/12/12 06:33:56;;;;;;;53.72;21.13;;;0.60;99.90;;;;;;5105649;28;20372;-82
2022/12/12 06:36:30;;;;;;;49.47;21.58;;;0.70;99.90;;;;;;5120962;28;20055;-85
2022/12/12 06:39:00;;;;;;;61.60;26.33;;;0.70;99.90;;;;;;5109950;28;20054;-84
2022/12/12 06:41:28;;;;;;;61.83;31.80;;;0.70;99.90;;;;;;5121873;28;20047;-83
2022/12/12 06:43:54;;;;;;;46.40;20.85;;;0.70;99.90;;;;;;5101169;28;20071;-85
2022/12/12 06:46:23;;;;;;;38.03;13.95;;;0.80;99.90;;;;;;5119952;28;20484;-83
2022/12/12 06:48:49;;;;;;;29.90;11.55;;;0.70;99.90;;;;;;5121860;28;20043;-83
2022/12/12 06:51:21;;;;;;;34.03;12.23;;;0.70;99.90;;;;;;5110850;28;20096;-83
2022/12/12 06:53:48;;;;;;;32.42;11.40;;;0.70;99.90;;;;;;5129849;28;20446;-85
2022/12/12 06:56:18;;;;;;;36.72;13.32;;;0.70;99.90;;;;;;5130540;28;20035;-84
2022/12/12 06:58:44;;;;;;;35.28;11.38;;;0.70;99.90;;;;;;5130808;28;20055;-84
2022/12/12 07:01:12;;;;;;;34.17;11.50;;;0.80;99.90;;;;;;5125317;28;20138;-84
2022/12/12 07:03:38;;;;;;;26.95;9.27;;;0.70;99.90;;;;;;5106838;28;20099;-82
2022/12/12 07:06:05;;;;;;;29.42;9.48;;;0.70;99.90;;;;;;5123197;28;20184;-81
2022/12/12 07:08:32;;;;;;;36.37;12.77;;;0.70;99.90;;;;;;5122008;28;20502;-84
2022/12/12 07:11:06;;;;;;;90.55;49.00;;;0.70;99.90;;;;;;5119273;28;20095;-84
2022/12/12 07:13:32;;;;;;;46.92;19.83;;;0.70;99.90;;;;;;5130983;27;20059;-84
2022/12/12 07:15:58;;;;;;;37.78;14.82;;;0.70;99.90;;;;;;5142492;27;20080;-84
2022/12/12 07:18:23;;;;;;;32.63;11.90;;;0.70;99.90;;;;;;5126206;27;20071;-83
2022/12/12 07:20:49;;;;;;;31.20;10.68;;;0.70;99.90;;;;;;5144167;27;20043;-84
2022/12/12 07:23:15;;;;;;;30.67;9.52;;;0.60;99.90;;;;;;5145137;27;20054;-82
2022/12/12 07:25:43;;;;;;;28.73;9.63;;;0.60;99.90;;;;;;5147658;27;20080;-85
2022/12/12 07:28:10;;;;;;;27.02;9.85;;;0.60;99.90;;;;;;5127555;27;20050;-85
2022/12/12 07:30:45;;;;;;;29.55;10.25;;;0.60;99.90;;;;;;5146320;27;20087;-85
2022/12/12 07:33:12;;;;;;;29.50;10.48;;;0.60;99.90;;;;;;5106837;27;20073;-84
2022/12/12 07:35:38;;;;;;;28.75;10.40;;;0.60;99.90;;;;;;5141963;27;20043;-84
2022/12/12 07:38:04;;;;;;;30.80;10.70;;;0.70;99.90;;;;;;5140688;27;20039;-86
2022/12/12 07:40:31;;;;;;;30.17;10.45;;;0.60;99.90;;;;;;5107026;27;20054;-85
2022/12/12 07:42:58;;;;;;;28.67;9.40;;;0.60;99.90;;;;;;5142264;27;20514;-87
2022/12/12 07:45:24;;;;;;;29.35;10.95;;;0.60;99.90;;;;;;5090504;27;20047;-83
2022/12/12 07:47:50;;;;;;;34.97;14.45;;;0.60;99.90;;;;;;5107845;27;20112;-85
2022/12/12 07:50:16;;;;;;;37.30;17.70;;;0.60;99.90;;;;;;5143232;27;20039;-84
2022/12/12 07:52:43;;;;;;;30.55;12.05;;;0.60;99.90;;;;;;5124931;27;20148;-84
2022/12/12 07:55:09;;;;;;;30.58;11.05;;;0.60;99.90;;;;;;5125774;27;20448;-85
2022/12/12 07:57:36;;;;;;;33.30;11.43;;;0.60;99.90;;;;;;5088675;27;20046;-86
2022/12/12 08:00:07;;;;;;;29.98;10.13;;;0.60;99.90;;;;;;5138145;27;20136;-87
2022/12/12 08:02:33;;;;;;;32.63;10.52;;;0.60;99.90;;;;;;5137958;27;20055;-85
2022/12/12 08:04:58;;;;;;;31.33;10.98;;;0.60;99.90;;;;;;5102670;27;20129;-85
2022/12/12 08:07:25;;;;;;;31.92;10.57;;;0.60;99.90;;;;;;5105700;27;20122;-82
2022/12/12 08:09:51;;;;;;;27.03;9.80;;;0.70;99.90;;;;;;5109100;27;20491;-86
2022/12/12 08:12:17;;;;;;;31.63;11.82;;;0.70;99.90;;;;;;5129514;27;20047;-85
2022/12/12 08:14:43;;;;;;;30.67;12.93;;;0.70;99.90;;;;;;5152796;27;20066;-82
2022/12/12 08:17:09;;;;;;;32.92;10.85;;;0.70;99.90;;;;;;5120665;27;20066;-84
2022/12/12 08:19:34;;;;;;;28.55;10.35;;;0.70;99.90;;;;;;5133470;27;20073;-85
2022/12/12 08:22:00;;;;;;;30.98;11.70;;;0.70;99.90;;;;;;5134541;27;20047;-84
2022/12/12 08:24:27;;;;;;;30.67;11.07;;;0.80;99.90;;;;;;5154628;27;20047;-81
2022/12/12 08:26:53;;;;;;;28.30;10.57;;;0.80;99.90;;;;;;5135362;27;20087;-83
2022/12/12 08:29:19;;;;;;;28.63;9.27;;;0.70;99.90;;;;;;5112560;27;20053;-85
2022/12/12 08:31:45;;;;;;;29.88;10.20;;;0.80;99.90;;;;;;5131304;27;20094;-83
2022/12/12 08:34:10;;;;;;;31.80;11.18;;;0.80;99.90;;;;;;5132509;27;20046;-86
2022/12/12 08:36:36;;;;;;;27.15;10.43;;;0.90;99.90;;;;;;5137639;27;20533;-82
2022/12/12 08:39:11;;;;;;;27.60;9.85;;;0.90;99.90;;;;;;5136618;27;20057;-82
2022/12/12 08:41:39;;;;;;;26.60;9.40;;;0.90;99.90;;;;;;5134907;27;20451;-84
2022/12/12 08:44:06;;;;;;;26.02;9.70;;;0.90;99.90;;;;;;5118057;27;20078;-83
2022/12/12 08:46:33;;;;;;;28.35;9.98;;;0.90;99.90;;;;;;5134548;27;20129;-85
2022/12/12 08:48:58;;;;;;;27.05;9.63;;;1.00;99.90;;;;;;5129883;28;20047;-85
2022/12/12 08:51:24;;;;;;;29.35;9.65;;;1.00;99.90;;;;;;5126123;27;20070;-82
2022/12/12 08:53:52;;;;;;;28.30;11.00;;;1.00;99.90;;;;;;5127646;27;20039;-86
2022/12/12 08:56:18;;;;;;;;;;;1.00;99.90;;;;;;5145777;27;20444;-84
2022/12/12 08:58:45;;;;;;;25.45;9.45;;;1.00;99.90;;;;;;5129244;28;20005;-85
2022/12/12 09:01:16;;;;;;;28.92;9.85;;;1.00;99.90;;;;;;5116328;27;20046;-86
2022/12/12 09:03:42;;;;;;;31.30;9.50;;;1.10;99.90;;;;;;5154717;27;20069;-85
2022/12/12 09:06:09;;;;;;;26.77;9.85;;;1.10;99.90;;;;;;5153958;28;20039;-87
2022/12/12 09:08:36;;;;;;;31.27;11.55;;;1.20;99.90;;;;;;5134496;28;20055;-86
2022/12/12 09:11:02;;;;;;;31.23;10.13;;;1.20;99.90;;;;;;5136704;28;20050;-84
2022/12/12 09:13:29;;;;;;;29.55;11.00;;;1.20;99.90;;;;;;5154959;27;20054;-84
2022/12/12 09:15:55;;;;;;;28.25;10.20;;;1.20;99.90;;;;;;5134464;28;20072;-85
2022/12/12 09:18:22;;;;;;;29.63;10.18;;;1.20;99.90;;;;;;5151830;28;20036;-83
2022/12/12 09:20:51;;;;;;;28.85;9.70;;;1.20;99.90;;;;;;5136181;28;20125;-82
2022/12/12 09:23:18;;;;;;;26.20;9.90;;;1.40;99.90;;;;;;5135117;28;20082;-82
2022/12/12 09:25:44;;;;;;;252.77;94.03;;;1.30;99.90;;;;;;5117228;28;20061;-82
2022/12/12 09:28:11;;;;;;;57.35;22.70;;;1.40;99.90;;;;;;5134261;28;20126;-83
2022/12/12 09:30:37;;;;;;;52.97;20.60;;;1.40;99.90;;;;;;5150843;28;20394;-86
2022/12/12 09:33:03;;;;;;;33.90;11.98;;;1.40;99.90;;;;;;5132274;28;20288;-84
2022/12/12 09:35:29;;;;;;;31.00;10.07;;;1.50;99.90;;;;;;5133862;28;20542;-85
2022/12/12 09:37:55;;;;;;;35.78;12.40;;;1.60;99.90;;;;;;5132467;28;20103;-85
2022/12/12 09:40:31;;;;;;;31.70;10.70;;;1.50;99.90;;;;;;5145541;28;20061;-84
2022/12/12 09:42:57;;;;;;;34.15;10.77;;;1.60;99.90;;;;;;5135053;28;20058;-84
2022/12/12 09:45:23;;;;;;;26.23;10.18;;;1.60;99.90;;;;;;5119100;28;20043;-84
2022/12/12 09:47:55;;;;;;;28.05;10.10;;;1.60;99.90;;;;;;5132589;28;20148;-83
2022/12/12 09:50:26;;;;;;;30.00;10.10;;;1.60;99.90;;;;;;5133218;28;20094;-85
2022/12/12 09:52:55;;;;;;;30.15;10.57;;;1.60;99.90;;;;;;5131796;28;20090;-83
2022/12/12 09:55:34;;;;;;;27.35;9.57;;;1.60;99.90;;;;;;5147933;28;20047;-85
2022/12/12 09:58:25;;;;;;;31.50;10.43;;;1.60;99.90;;;;;;5127938;28;20051;-87
2022/12/12 10:01:01;;;;;;;29.17;9.82;;;1.70;99.90;;;;;;5145640;28;20083;-87
2022/12/12 10:03:54;;;;;;;30.33;10.88;;;1.70;99.90;;;;;;5113458;28;20132;-88
2022/12/12 10:06:22;;;;;;;31.02;13.23;;;1.80;99.90;;;;;;5130158;28;20039;-87
2022/12/12 10:08:56;;;;;;;25.88;10.52;;;1.80;99.90;;;;;;5131133;28;20055;-87
2022/12/12 10:11:50;;;;;;;31.63;10.80;;;1.80;99.90;;;;;;5109617;27;20051;-87
2022/12/12 10:14:33;;;;;;;30.85;10.43;;;1.90;99.90;;;;;;5126006;27;20048;-87
2022/12/12 10:17:02;;;;;;;30.23;10.32;;;1.90;99.90;;;;;;5129317;27;20068;-87
2022/12/12 10:19:32;;;;;;;30.92;11.65;;;1.90;99.90;;;;;;5143686;27;20107;-87
2022/12/12 10:22:13;;;;;;;28.98;10.38;;;1.90;99.90;;;;;;5127738;27;20115;-84
2022/12/12 10:24:52;;;;;;;31.15;11.15;;;2.00;99.90;;;;;;5150788;27;20047;-86
2022/12/12 10:27:17;;;;;;;27.90;10.00;;;2.00;99.90;;;;;;5150861;27;20047;-84
2022/12/12 10:29:47;;;;;;;30.90;11.32;;;2.10;99.90;;;;;;5131007;27;20047;-87
2022/12/12 10:33:04;;;;;;;28.92;10.52;;;2.10;99.90;;;;;;5146844;27;20089;-88
2022/12/12 10:35:55;;;;;;;31.08;10.80;;;2.10;99.90;;;;;;5112429;27;20047;-87
2022/12/12 10:38:49;;;;;;;29.98;10.40;;;2.10;99.90;;;;;;5125022;27;20550;-86
2022/12/12 10:41:35;;;;;;;27.83;9.90;;;2.10;99.90;;;;;;5145920;27;20046;-84
2022/12/12 10:44:43;;;;;;;26.90;10.23;;;2.10;99.90;;;;;;5125919;27;20058;-84
2022/12/12 10:47:11;;;;;;;29.73;10.07;;;2.10;99.90;;;;;;5135484;27;20094;-86
2022/12/12 10:49:38;;;;;;;31.30;11.10;;;2.10;99.90;;;;;;5124360;27;20039;-86
2022/12/12 10:52:10;;;;;;;;;;;2.10;99.90;;;;;;5093485;27;20051;-85
2022/12/12 10:54:45;;;;;;;27.25;10.55;;;2.10;99.90;;;;;;5129124;27;19969;-86
2022/12/12 10:57:25;;;;;;;29.58;10.20;;;2.20;99.90;;;;;;5148305;27;20058;-87
2022/12/12 10:59:53;;;;;;;31.35;11.65;;;2.20;99.90;;;;;;5132461;27;20043;-85
2022/12/12 11:02:40;;;;;;;29.90;11.48;;;2.20;99.90;;;;;;5145519;27;20054;-85
2022/12/12 11:05:15;;;;;;;32.92;11.45;;;2.20;99.90;;;;;;5128714;27;20406;-84
2022/12/12 11:07:47;;;;;;;33.83;11.10;;;2.30;99.90;;;;;;5126967;27;20413;-86
2022/12/12 11:10:30;;;;;;;32.28;11.07;;;2.30;99.90;;;;;;5106526;27;20047;-84
2022/12/12 11:13:00;;;;;;;30.88;10.57;;;2.30;99.90;;;;;;5105155;27;20490;-84
2022/12/12 11:16:00;;;;;;;33.80;11.52;;;2.30;99.90;;;;;;5144134;27;20100;-82
2022/12/12 11:18:28;;;;;;;36.40;10.98;;;2.30;99.90;;;;;;5122004;27;20059;-84
2022/12/12 11:21:09;;;;;;;33.20;11.70;;;2.30;99.90;;;;;;5140559;27;20043;-83
2022/12/12 11:23:38;;;;;;;35.03;12.57;;;2.30;99.90;;;;;;5125318;27;20035;-81
2022/12/12 11:26:17;;;;;;;28.30;9.82;;;2.30;99.90;;;;;;5117423;27;20099;-83
2022/12/12 11:28:50;;;;;;;34.28;11.75;;;2.30;99.90;;;;;;5121455;27;20064;-85
2022/12/12 11:31:16;;;;;;;38.58;12.30;;;2.40;99.90;;;;;;5117652;27;20050;-84
2022/12/12 11:33:54;;;;;;;37.20;13.23;;;2.30;99.90;;;;;;5110739;27;20043;-85
2022/12/12 11:36:35;;;;;;;34.95;12.45;;;2.40;99.90;;;;;;5129651;27;20051;-86
2022/12/12 11:39:14;;;;;;;39.92;12.68;;;2.30;99.90;;;;;;5132165;27;20112;-86
2022/12/12 11:42:00;;;;;;;40.88;13.77;;;2.40;99.90;;;;;;5127772;27;20035;-79
2022/12/12 11:44:30;;;;;;;36.13;12.52;;;2.30;99.90;;;;;;5130098;27;20047;-83
2022/12/12 11:47:20;;;;;;;42.00;13.68;;;2.40;99.90;;;;;;5108847;27;20192;-84
2022/12/12 11:49:48;;;;;;;41.22;14.32;;;2.40;99.90;;;;;;5144847;27;20125;-83
2022/12/12 11:52:28;;;;;;;47.03;14.88;;;2.40;99.90;;;;;;5145982;27;20039;-82
2022/12/12 11:54:55;;;;;;;43.30;14.02;;;2.50;99.90;;;;;;5131468;27;20051;-82
2022/12/12 11:57:39;;;;;;;45.20;14.87;;;2.50;99.90;;;;;;5151928;27;20051;-83
2022/12/12 12:00:17;;;;;;;38.00;13.98;;;2.50;99.90;;;;;;5110996;27;20043;-85
2022/12/12 12:03:05;;;;;;;45.97;14.52;;;2.50;99.90;;;;;;5134916;27;20071;-81
2022/12/12 12:05:40;;;;;;;42.67;14.88;;;2.50;99.90;;;;;;5154298;27;20047;-85
2022/12/12 12:08:23;;;;;;;44.63;14.85;;;2.50;99.90;;;;;;5136217;27;20058;-80
2022/12/12 12:11:04;;;;;;;40.38;14.13;;;2.50;99.90;;;;;;5153117;27;20459;-80
2022/12/12 12:14:15;;;;;;;43.88;14.65;;;2.50;99.90;;;;;;5154979;27;20061;-82
2022/12/12 12:17:11;;;;;;;38.88;12.02;;;2.50;99.90;;;;;;5150225;27;20061;-82
2022/12/12 12:19:50;;;;;;;44.20;15.15;;;2.60;99.90;;;;;;5120626;27;20091;-83
2022/12/12 12:22:42;;;;;;;44.00;14.38;;;2.60;99.90;;;;;;5134184;27;20079;-85
2022/12/12 12:25:43;;;;;;;38.03;12.20;;;2.50;99.90;;;;;;5147775;27;20058;-82
2022/12/12 12:28:27;;;;;;;53.90;15.95;;;2.60;99.90;;;;;;5106969;27;20054;-80
2022/12/12 12:31:21;;;;;;;44.90;15.18;;;2.60;99.90;;;;;;5152593;27;20039;-82
2022/12/12 12:33:47;;;;;;;43.53;14.15;;;2.50;99.90;;;;;;5132862;27;20051;-81
2022/12/12 12:36:32;;;;;;;42.30;14.10;;;2.60;99.90;;;;;;5149431;27;20054;-83
2022/12/12 12:39:38;;;;;;;44.85;14.73;;;2.60;99.90;;;;;;5150555;27;20043;-86
2022/12/12 12:42:22;;;;;;;43.17;13.70;;;2.60;99.90;;;;;;5149038;27;20057;-83
2022/12/12 12:45:04;;;;;;;43.20;13.65;;;2.60;99.90;;;;;;5150132;27;20039;-84
2022/12/12 12:47:53;;;;;;;44.22;14.32;;;2.50;99.90;;;;;;5137014;28;20039;-83
2022/12/12 12:50:24;;;;;;;46.80;16.13;;;2.50;99.90;;;;;;5153080;27;20047;-83
2022/12/12 12:52:58;;;;;;;44.10;15.00;;;2.40;99.90;;;;;;5134145;27;20065;-87
2022/12/12 12:55:28;;;;;;;48.15;15.52;;;2.30;99.90;;;;;;5153816;27;20038;-85
2022/12/12 12:57:54;;;;;;;50.05;15.65;;;2.20;99.90;;;;;;5134636;27;20073;-83
2022/12/12 13:00:23;;;;;;;37.92;11.05;;;2.30;99.90;;;;;;5136805;28;20098;-82
2022/12/12 13:03:24;;;;;;;51.47;16.33;;;2.40;99.90;;;;;;5134472;27;20059;-83
2022/12/12 13:05:58;;;;;;;47.33;15.15;;;2.30;99.90;;;;;;5152227;28;20039;-85
2022/12/12 13:08:54;;;;;;;59.08;16.42;;;2.20;99.90;;;;;;5155820;28;20110;-83
2022/12/12 13:11:30;;;;;;;48.92;15.23;;;2.10;99.90;;;;;;5078919;28;20050;-84
2022/12/12 13:14:21;;;;;;;43.70;14.95;;;2.10;99.90;;;;;;5130352;28;20073;-84
2022/12/12 13:16:49;;;;;;;50.58;16.50;;;2.00;99.90;;;;;;5126177;28;20465;-84
2022/12/12 13:19:32;;;;;;;45.10;14.73;;;2.00;99.90;;;;;;5122417;28;20126;-84